Starr, South Carolina
Current Conditions -  °F | °C
As of 8:56 AM on Thursday 27 Nov 2014 (Local Time) from KAND Reporting Station
Scattered Clouds Scattered Clouds  
Wind Chill: 39°   Ceiling: Unl
Heat Index: 45°   Visibility: 10mi
Dew Point: 28°   Wind: 14mph
Humidity: 52%   Direction: 270°W
Pressure: 30.13"   Gusts: 24mph
Location:  34.38°N, 82.7°W
Report Text: KAND 271356Z AUTO 27012G21KT 10SM SCT065 07/M02 A3013 RMK AO2 SLP203 T00721022
Loading
Personal Weather Stations






























Interactive Weather Map New forecast layout! Learn more

10-Day Weather Forecast

Advertisements
Track Severe Weather on mobile